Time;durP1;ratioP1;P1;durP2;ratioP2;P2;SDS_P1;SDS_P2;PMS_P1;PMS_P2;Temp;Humidity;BMP_temperature;BMP_pressure;BME280_temperature;BME280_humidity;BME280_pressure;Samples;Min_cycle;Max_cycle;Signal;HPM_P1;HPM_P2
2024/03/30 00:00:49;;;;;;;12.48;5.20;;;;;;;12.56;100.00;97416.88;5063037;28;20032;-74
2024/03/30 00:03:14;;;;;;;14.43;5.13;;;;;;;12.52;100.00;97396.59;5071116;28;20020;-74
2024/03/30 00:05:40;;;;;;;12.30;5.45;;;;;;;12.50;100.00;97415.50;5072062;28;20032;-74
2024/03/30 00:08:07;;;;;;;10.55;5.43;;;;;;;12.49;100.00;97410.22;5077985;28;20027;-74
2024/03/30 00:10:32;;;;;;;14.73;5.30;;;;;;;12.54;100.00;97407.22;5070624;28;20024;-75
2024/03/30 00:13:00;;;;;;;13.05;5.05;;;;;;;12.52;100.00;97403.81;5053959;28;20177;-75
2024/03/30 00:15:29;;;;;;;13.70;5.10;;;;;;;12.52;100.00;97419.91;5054347;28;20039;-75
2024/03/30 00:17:55;;;;;;;12.57;5.85;;;;;;;12.48;100.00;97419.28;5071504;28;20053;-74
2024/03/30 00:20:22;;;;;;;14.50;5.72;;;;;;;12.44;100.00;97423.13;5070623;28;20372;-73
2024/03/30 00:22:49;;;;;;;9.38;5.63;;;;;;;12.36;100.00;97425.50;5070474;28;20036;-74
2024/03/30 00:25:15;;;;;;;14.55;6.45;;;;;;;12.40;100.00;97426.97;5070779;28;20029;-74
2024/03/30 00:27:41;;;;;;;11.23;5.30;;;;;;;12.31;100.00;97416.91;5070188;28;20499;-75
2024/03/30 00:30:07;;;;;;;13.77;5.95;;;;;;;12.36;100.00;97425.50;5071820;28;20377;-74
2024/03/30 00:32:32;;;;;;;12.10;5.45;;;;;;;12.38;100.00;97428.94;5071848;28;20028;-75
2024/03/30 00:34:58;;;;;;;14.50;5.97;;;;;;;12.31;100.00;97417.78;5053423;28;20480;-74
2024/03/30 00:37:24;;;;;;;14.40;5.30;;;;;;;12.24;100.00;97418.34;5070428;28;20024;-74
2024/03/30 00:39:50;;;;;;;11.07;5.30;;;;;;;12.26;100.00;97419.94;5069858;28;20040;-74
2024/03/30 00:42:16;;;;;;;11.63;5.28;;;;;;;12.27;100.00;97421.66;5071405;28;20046;-74
2024/03/30 00:44:41;;;;;;;8.90;4.82;;;;;;;12.24;100.00;97415.66;5070066;28;20462;-74
2024/03/30 00:47:07;;;;;;;16.05;5.35;;;;;;;12.31;100.00;97417.78;5070503;28;20029;-74
2024/03/30 00:49:32;;;;;;;12.48;5.43;;;;;;;12.35;100.00;97424.66;5069975;28;20074;-74
2024/03/30 00:52:17;;;;;;;10.45;5.35;;;;;;;12.28;100.00;97414.44;5071095;28;20480;-74
2024/03/30 00:54:42;;;;;;;14.63;5.72;;;;;;;12.20;100.00;97422.19;5069687;28;20055;-75
2024/03/30 00:57:08;;;;;;;13.90;5.32;;;;;;;12.17;100.00;97415.22;5073418;28;20062;-74
2024/03/30 00:59:35;;;;;;;17.92;4.97;;;;;;;12.14;100.00;97410.06;5082984;28;20028;-75
2024/03/30 01:02:00;;;;;;;12.00;5.18;;;;;;;12.09;100.00;97406.00;5072046;28;20039;-74
2024/03/30 01:04:26;;;;;;;15.30;5.75;;;;;;;12.11;100.00;97401.38;5073120;28;20027;-74
2024/03/30 01:06:51;;;;;;;11.65;4.68;;;;;;;12.11;100.00;97399.56;5089833;28;20448;-74
2024/03/30 01:09:17;;;;;;;9.68;4.65;;;;;;;12.09;100.00;97406.84;5060436;28;20094;-74
2024/03/30 01:11:43;;;;;;;13.05;5.50;;;;;;;12.05;100.00;97399.13;5069942;28;20048;-74
2024/03/30 01:14:09;;;;;;;12.32;4.75;;;;;;;12.04;100.00;97403.63;5069343;28;20036;-74
2024/03/30 01:16:35;;;;;;;15.50;5.28;;;;;;;11.99;100.00;97400.44;5069526;28;20048;-74
2024/03/30 01:19:00;;;;;;;12.57;5.57;;;;;;;11.95;100.00;97388.19;5070482;28;20036;-74
2024/03/30 01:21:26;;;;;;;16.48;5.45;;;;;;;11.94;100.00;97391.84;5069412;28;20032;-75
2024/03/30 01:23:52;;;;;;;10.88;4.85;;;;;;;11.96;100.00;97400.66;5078211;28;20414;-73
2024/03/30 01:26:22;;;;;;;9.27;4.45;;;;;;;12.04;100.00;97398.28;5090955;28;20522;-73
2024/03/30 01:28:48;;;;;;;18.00;5.25;;;;;;;12.02;100.00;97405.56;5089901;28;20466;-74
2024/03/30 01:31:14;;;;;;;14.45;4.80;;;;;;;11.98;100.00;97414.78;5044477;28;20127;-75
2024/03/30 01:33:40;;;;;;;10.88;4.43;;;;;;;11.95;100.00;97401.59;5070652;28;20036;-75
2024/03/30 01:36:07;;;;;;;12.18;4.63;;;;;;;11.91;100.00;97413.50;5079784;28;20024;-74
2024/03/30 01:38:32;;;;;;;10.02;4.60;;;;;;;11.97;100.00;97418.41;5072610;28;20399;-75
2024/03/30 01:40:59;;;;;;;9.82;4.65;;;;;;;11.99;100.00;97403.13;5079964;28;20036;-74
2024/03/30 01:43:24;;;;;;;12.80;4.38;;;;;;;11.95;100.00;97415.00;5069359;28;20020;-75
2024/03/30 01:45:51;;;;;;;9.57;3.92;;;;;;;11.97;100.00;97410.38;5070653;28;20031;-75
2024/03/30 01:48:18;;;;;;;11.10;4.15;;;;;;;12.00;100.00;97412.84;5069044;28;20024;-75
2024/03/30 01:50:44;;;;;;;9.10;4.47;;;;;;;11.97;100.00;97412.22;5052409;28;20021;-75
2024/03/30 01:53:12;;;;;;;11.75;4.57;;;;;;;12.00;100.00;97410.16;5080736;28;20411;-75
2024/03/30 01:55:40;;;;;;;13.13;3.83;;;;;;;12.00;100.00;97418.22;5081039;28;20027;-76
2024/03/30 01:58:07;;;;;;;8.30;3.80;;;;;;;11.98;100.00;97420.16;5090400;28;20424;-75
2024/03/30 02:00:32;;;;;;;7.53;3.50;;;;;;;11.94;100.00;97413.28;5093196;28;20097;-74
2024/03/30 02:02:59;;;;;;;7.07;3.22;;;;;;;11.83;100.00;97415.84;5093461;28;20063;-74
2024/03/30 02:05:24;;;;;;;9.98;3.53;;;;;;;11.77;100.00;97410.91;5093523;28;20032;-74
2024/03/30 02:07:50;;;;;;;5.38;3.10;;;;;;;11.71;100.00;97412.22;5076383;28;20038;-73
2024/03/30 02:10:16;;;;;;;9.77;3.60;;;;;;;11.61;100.00;97411.06;5093090;28;20016;-73
2024/03/30 02:12:42;;;;;;;6.88;3.30;;;;;;;11.67;100.00;97407.13;5078614;28;20040;-74
2024/03/30 02:15:08;;;;;;;6.47;2.90;;;;;;;11.63;100.00;97414.50;5056052;28;20028;-74
2024/03/30 02:17:33;;;;;;;5.70;3.00;;;;;;;11.55;100.00;97408.81;5073012;28;20071;-74
2024/03/30 02:19:59;;;;;;;7.38;3.28;;;;;;;11.53;100.00;97417.94;5089599;28;20115;-74
2024/03/30 02:22:25;;;;;;;8.00;2.83;;;;;;;11.63;100.00;97416.34;5092917;28;20177;-74
2024/03/30 02:24:50;;;;;;;7.55;2.70;;;;;;;11.66;100.00;97424.19;5094474;28;20028;-75
2024/03/30 02:27:16;;;;;;;6.63;2.88;;;;;;;11.59;100.00;97412.16;5094194;28;20046;-75
2024/03/30 02:29:47;;;;;;;9.30;3.08;;;;;;;11.55;100.00;97426.69;5092935;28;20048;-74
2024/03/30 02:32:14;;;;;;;7.53;3.88;;;;;;;11.49;100.00;97403.88;5074507;28;20032;-79
2024/03/30 02:34:39;;;;;;;9.85;3.83;;;;;;;11.48;100.00;97409.31;5093269;28;20081;-75
2024/03/30 02:37:05;;;;;;;10.02;5.03;;;;;;;11.44;100.00;97411.38;5068893;28;20032;-75
2024/03/30 02:39:30;;;;;;;9.15;4.55;;;;;;;11.49;100.00;97427.13;5082794;28;20028;-76
2024/03/30 02:41:56;;;;;;;10.25;4.97;;;;;;;11.41;100.00;97412.41;5085539;28;20047;-76
2024/03/30 02:44:22;;;;;;;7.80;4.43;;;;;;;11.38;100.00;97423.34;5055610;28;20032;-76
2024/03/30 02:46:47;;;;;;;18.58;4.40;;;;;;;11.39;100.00;97426.88;5061507;28;20032;-75
2024/03/30 02:49:14;;;;;;;8.05;3.80;;;;;;;11.38;100.00;97420.66;5074761;28;20031;-75
2024/03/30 02:51:40;;;;;;;9.45;4.63;;;;;;;11.36;100.00;97427.09;5055518;28;20553;-74
2024/03/30 02:54:05;;;;;;;7.70;4.05;;;;;;;11.29;100.00;97415.91;5088874;28;20023;-74
2024/03/30 02:56:32;;;;;;;10.10;4.22;;;;;;;11.29;100.00;97431.97;5073540;28;20032;-76
2024/03/30 02:58:58;;;;;;;7.20;3.53;;;;;;;11.29;100.00;97433.78;5077724;28;20031;-75
2024/03/30 03:01:24;;;;;;;10.82;3.83;;;;;;;11.29;100.00;97426.63;5083169;28;20050;-75
2024/03/30 03:03:50;;;;;;;7.40;3.42;;;;;;;11.33;100.00;97432.63;5074887;28;20047;-76
2024/03/30 03:06:16;;;;;;;12.30;4.35;;;;;;;11.34;100.00;97429.88;5088103;28;20491;-76
2024/03/30 03:08:41;;;;;;;7.80;3.53;;;;;;;11.32;100.00;97421.06;5067010;28;20054;-76
2024/03/30 03:11:07;;;;;;;9.38;4.45;;;;;;;11.33;100.00;97436.19;5065521;28;20519;-76
2024/03/30 03:13:32;;;;;;;10.88;4.03;;;;;;;11.27;100.00;97425.88;5092017;28;20024;-76
2024/03/30 03:16:06;;;;;;;6.40;3.70;;;;;;;11.25;100.00;97435.84;5093221;28;20565;-77
2024/03/30 03:18:32;;;;;;;8.90;4.30;;;;;;;11.13;100.00;97422.41;5068005;28;20510;-76
2024/03/30 03:20:57;;;;;;;7.85;3.38;;;;;;;11.07;100.00;97429.03;5082386;28;20065;-76
2024/03/30 03:23:25;;;;;;;9.20;3.80;;;;;;;11.13;100.00;97425.97;5082294;28;20024;-76
2024/03/30 03:25:51;;;;;;;7.63;3.67;;;;;;;11.05;100.00;97427.41;5081459;28;20028;-76
2024/03/30 03:28:17;;;;;;;9.65;3.90;;;;;;;11.07;100.00;97437.06;5080423;28;20376;-76
2024/03/30 03:30:43;;;;;;;10.70;4.20;;;;;;;11.03;100.00;97413.25;5074809;28;20031;-77
2024/03/30 03:33:08;;;;;;;8.80;3.40;;;;;;;10.96;100.00;97422.66;5077516;28;20029;-76
2024/03/30 03:35:34;;;;;;;8.80;3.80;;;;;;;10.96;100.00;97428.88;5080866;28;20017;-76
2024/03/30 03:38:00;;;;;;;6.75;3.20;;;;;;;10.85;100.00;97415.34;5054767;28;20424;-76
2024/03/30 03:40:25;;;;;;;12.07;3.90;;;;;;;10.88;100.00;97428.50;5063965;28;20044;-76
2024/03/30 03:42:51;;;;;;;7.80;3.30;;;;;;;10.86;100.00;97420.56;5074766;28;20023;-76
2024/03/30 03:45:17;;;;;;;6.07;3.25;;;;;;;10.91;100.00;97427.44;5077932;28;20020;-76
2024/03/30 03:47:42;;;;;;;9.68;3.15;;;;;;;10.92;100.00;97427.34;5089879;28;20475;-76
2024/03/30 03:50:08;;;;;;;12.90;3.33;;;;;;;10.88;100.00;97412.47;5091427;28;20099;-77
2024/03/30 03:52:33;;;;;;;7.55;3.28;;;;;;;10.96;100.00;97423.50;5084029;28;20028;-76
2024/03/30 03:54:59;;;;;;;10.63;4.03;;;;;;;10.97;100.00;97424.38;5079090;28;20094;-76
2024/03/30 03:57:24;;;;;;;7.00;3.60;;;;;;;10.98;100.00;97426.97;5063005;28;20036;-76
2024/03/30 03:59:51;;;;;;;9.55;3.92;;;;;;;10.94;100.00;97430.78;5080762;28;20025;-76
2024/03/30 04:02:16;;;;;;;14.93;3.85;;;;;;;10.94;100.00;97436.16;5071152;28;20021;-77
2024/03/30 04:04:42;;;;;;;10.82;4.18;;;;;;;10.95;100.00;97432.50;5083304;28;20093;-76
2024/03/30 04:07:08;;;;;;;24.27;5.82;;;;;;;10.96;100.00;97434.22;5086421;28;20077;-76
2024/03/30 04:09:33;;;;;;;14.27;3.90;;;;;;;10.92;100.00;97435.38;5063969;28;20016;-77
2024/03/30 04:11:59;;;;;;;9.65;3.40;;;;;;;10.87;100.00;97418.75;5082818;28;20630;-77
2024/03/30 04:14:24;;;;;;;11.63;3.55;;;;;;;10.86;100.00;97420.56;5082606;28;20035;-76
2024/03/30 04:16:50;;;;;;;14.05;4.10;;;;;;;10.93;100.00;97429.06;5072461;28;20097;-75
2024/03/30 04:19:18;;;;;;;14.10;4.85;;;;;;;10.96;100.00;97434.22;5083563;28;20066;-75
2024/03/30 04:21:45;;;;;;;11.50;4.70;;;;;;;10.97;100.00;97425.25;5080443;28;20028;-74
2024/03/30 04:24:12;;;;;;;17.65;4.88;;;;;;;11.07;100.00;97436.19;5077617;28;20522;-77
2024/03/30 04:26:39;;;;;;;8.80;4.03;;;;;;;11.08;100.00;97436.09;5053760;28;20489;-76
2024/03/30 04:29:04;;;;;;;16.85;6.00;;;;;;;11.17;100.00;97432.81;5070925;28;20107;-76
2024/03/30 04:31:30;;;;;;;13.20;4.85;;;;;;;11.28;100.00;97438.31;5062177;28;20132;-77
2024/03/30 04:33:55;;;;;;;15.27;4.20;;;;;;;11.33;100.00;97433.50;5090492;28;20024;-76
2024/03/30 04:36:21;;;;;;;13.98;4.40;;;;;;;11.40;100.00;97431.28;5090654;28;20028;-75
2024/03/30 04:38:47;;;;;;;14.55;5.30;;;;;;;11.56;100.00;97448.03;5080564;28;20369;-75
2024/03/30 04:41:12;;;;;;;14.55;4.95;;;;;;;11.56;100.00;97441.81;5076075;28;20036;-76
2024/03/30 04:43:38;;;;;;;17.58;4.90;;;;;;;11.55;100.00;97449.00;5070396;28;20024;-75
2024/03/30 04:46:04;;;;;;;21.00;5.30;;;;;;;11.60;100.00;97435.28;5069959;28;20027;-76
2024/03/30 04:48:30;;;;;;;26.58;7.20;;;;;;;11.69;100.00;97442.72;5053621;28;20407;-75
2024/03/30 04:50:59;;;;;;;19.17;7.40;;;;;;;11.80;100.00;97438.38;5053179;28;20090;-76
2024/03/30 04:53:28;;;;;;;21.67;7.28;;;;;;;11.96;100.00;97438.16;5070120;28;20082;-76
2024/03/30 04:55:58;;;;;;;16.73;6.55;;;;;;;12.08;100.00;97441.81;5069746;28;20085;-75
2024/03/30 04:58:26;;;;;;;19.17;5.80;;;;;;;12.18;100.00;97424.97;5084285;28;20474;-75
2024/03/30 05:00:53;;;;;;;13.27;4.32;;;;;;;12.28;100.00;97423.34;5088720;28;20067;-75
2024/03/30 05:03:19;;;;;;;12.38;4.63;;;;;;;12.39;100.00;97420.78;5069700;28;20109;-76
2024/03/30 05:05:46;;;;;;;16.48;5.78;;;;;;;12.45;100.00;97420.34;5069777;28;20541;-75
2024/03/30 05:08:12;;;;;;;10.65;4.35;;;;;;;12.54;100.00;97424.19;5069674;28;20021;-75
2024/03/30 05:10:39;;;;;;;12.52;4.65;;;;;;;12.53;100.00;97427.84;5069852;28;20466;-75
2024/03/30 05:13:05;;;;;;;20.67;9.43;;;;;;;12.35;100.00;97431.84;5086562;28;20605;-81
2024/03/30 05:15:39;;;;;;;22.92;11.43;;;;;;;12.38;100.00;97421.75;5059677;28;20028;-82
2024/03/30 05:18:05;;;;;;;50.42;19.80;;;;;;;12.39;100.00;97441.38;5065549;28;20044;-80
2024/03/30 05:23:32;;;;;;;31.80;15.13;;;;;;;12.68;100.00;97436.59;5084129;28;20093;-82
2024/03/30 05:25:59;;;;;;;27.77;13.93;;;;;;;12.79;100.00;97444.75;5090481;28;20035;-82
2024/03/30 05:28:27;;;;;;;29.73;13.35;;;;;;;13.03;100.00;97449.19;5068899;28;20028;-78
2024/03/30 05:30:53;;;;;;;101.60;46.42;;;;;;;13.07;100.00;97434.53;5069749;28;20119;-79
2024/03/30 05:33:20;;;;;;;33.30;11.63;;;;;;;13.55;100.00;97430.06;5081238;28;20024;-77
2024/03/30 05:35:47;;;;;;;72.43;30.33;;;;;;;14.43;100.00;97431.28;5074126;28;20028;-77
2024/03/30 05:38:12;;;;;;;26.17;9.43;;;;;;;15.62;100.00;97430.50;5069855;28;20028;-76
2024/03/30 05:40:38;;;;;;;20.10;7.80;;;;;;;16.73;100.00;97406.34;5052907;28;20028;-79
2024/03/30 05:43:05;;;;;;;14.95;6.93;;;;;;;17.15;100.00;97407.06;5069913;28;20431;-79
2024/03/30 05:45:32;;;;;;;19.13;8.55;;;;;;;17.12;100.00;97399.22;5067231;28;20491;-83
2024/03/30 05:48:01;;;;;;;20.23;8.90;;;;;;;17.57;100.00;97407.72;5065429;28;20057;-82
2024/03/30 05:50:30;;;;;;;22.60;9.93;;;;;;;18.14;94.98;97397.84;5059921;28;20132;-81
2024/03/30 05:53:09;;;;;;;48.33;25.42;;;;;;;18.64;88.59;97396.59;5059629;28;20063;-85
2024/03/30 05:55:56;;;;;;;23.48;11.27;;;;;;;18.94;84.51;97393.63;5049602;28;20048;-83
2024/03/30 05:58:21;;;;;;;31.00;13.57;;;;;;;19.46;81.86;97385.75;5075221;28;20427;-81
2024/03/30 06:00:53;;;;;;;33.25;15.15;;;;;;;19.79;77.79;97401.34;5076929;28;20118;-80
2024/03/30 06:03:18;;;;;;;74.20;39.70;;;;;;;20.52;71.94;97388.34;5081774;28;20024;-80
2024/03/30 06:05:49;;;;;;;118.18;56.80;;;;;;;21.06;68.84;97389.81;5090311;28;20031;-83
2024/03/30 06:08:15;;;;;;;83.20;48.85;;;;;;;22.06;63.04;97382.41;5070602;28;20093;-84
2024/03/30 06:10:40;;;;;;;70.50;32.90;;;;;;;22.84;58.61;97379.94;5073749;28;20075;-82
2024/03/30 06:13:06;;;;;;;54.83;27.63;;;;;;;23.20;56.04;97364.78;5065818;28;20032;-81
2024/03/30 06:15:31;;;;;;;40.92;21.08;;;;;;;22.99;56.74;97375.47;5088129;28;20043;-80
2024/03/30 06:17:57;;;;;;;25.27;10.07;;;;;;;23.32;55.91;97369.88;5089404;28;20052;-79
2024/03/30 06:20:23;;;;;;;15.93;8.95;;;;;;;23.38;55.96;97371.88;5072136;28;20030;-79
2024/03/30 06:22:49;;;;;;;22.40;9.02;;;;;;;23.26;56.25;97365.94;5076098;28;20403;-80
2024/03/30 06:25:14;;;;;;;24.13;9.32;;;;;;;23.07;57.58;97364.50;5060678;28;20039;-80
2024/03/30 06:27:40;;;;;;;16.60;8.70;;;;;;;23.19;57.27;97360.34;5082826;28;20032;-80
2024/03/30 06:30:06;;;;;;;18.10;7.53;;;;;;;23.77;56.42;97363.63;5075362;28;20036;-81
2024/03/30 06:32:32;;;;;;;17.95;7.18;;;;;;;24.31;54.51;97356.19;5086982;28;20035;-80
2024/03/30 06:34:59;;;;;;;16.95;7.97;;;;;;;24.21;54.66;97346.38;5089202;28;20032;-81
2024/03/30 06:37:24;;;;;;;16.88;7.57;;;;;;;24.14;53.82;97358.25;5077948;28;20036;-82
2024/03/30 06:45:18;;;;;;;9.60;4.38;;;;;;;26.46;45.05;97326.22;5081216;28;20038;-81
2024/03/30 06:47:44;;;;;;;20.13;6.80;;;;;;;27.55;44.45;97330.88;5092772;28;20020;-83
2024/03/30 06:50:09;;;;;;;23.55;7.47;;;;;;;28.74;42.32;97332.72;5076634;28;20483;-74
2024/03/30 06:52:35;;;;;;;56.55;36.25;;;;;;;28.80;41.89;97320.84;5090976;28;20089;-75
2024/03/30 06:55:01;;;;;;;18.33;5.75;;;;;;;28.92;40.87;97319.97;5072997;28;20092;-76
2024/03/30 06:57:27;;;;;;;14.13;6.55;;;;;;;28.51;40.69;97312.00;5081853;28;20493;-80
2024/03/30 06:59:52;;;;;;;17.88;6.18;;;;;;;29.20;38.96;97316.06;5065808;28;20069;-81
2024/03/30 07:02:19;;;;;;;13.93;4.85;;;;;;;30.27;37.76;97303.19;5089717;28;20051;-81
2024/03/30 07:04:44;;;;;;;11.50;3.08;;;;;;;30.68;35.82;97308.16;5069706;28;20032;-80
2024/03/30 07:07:10;;;;;;;10.27;3.00;;;;;;;30.29;35.77;97301.06;5069619;28;20039;-79
2024/03/30 07:09:36;;;;;;;12.27;2.97;;;;;;;30.62;35.91;97298.88;5072973;28;20054;-82
2024/03/30 07:12:01;;;;;;;38.85;22.25;;;;;;;31.33;35.21;97305.75;5076405;28;20036;-83
2024/03/30 07:14:27;;;;;;;5.43;2.45;;;;;;;32.02;33.85;97292.28;5084552;28;20046;-81
2024/03/30 07:16:55;;;;;;;4.72;2.15;;;;;;;33.18;32.88;97300.72;5074488;28;20507;-83
2024/03/30 07:19:21;;;;;;;5.00;2.25;;;;;;;34.00;31.35;97295.75;5064404;28;20036;-80
2024/03/30 07:21:47;;;;;;;4.85;2.13;;;;;;;34.00;31.65;97300.47;5080519;28;20422;-81
2024/03/30 07:24:12;;;;;;;12.35;2.50;;;;;;;33.16;31.82;97302.06;5082757;28;20024;-81
2024/03/30 07:26:38;;;;;;;10.20;3.08;;;;;;;32.74;32.33;97291.09;5069034;28;20040;-78
2024/03/30 07:29:04;;;;;;;16.98;2.92;;;;;;;32.42;34.07;97314.66;5069562;28;20132;-78
2024/03/30 07:31:30;;;;;;;7.43;2.50;;;;;;;32.61;33.16;97313.50;5070393;28;20109;-77
2024/03/30 07:33:56;;;;;;;6.68;2.42;;;;;;;33.45;31.40;97301.00;5072382;28;20113;-76
2024/03/30 07:36:21;;;;;;;19.88;3.00;;;;;;;31.63;34.54;97307.50;5088747;28;20187;-81
2024/03/30 07:38:47;;;;;;;14.95;3.13;;;;;;;31.48;34.01;97298.75;5089102;28;20035;-74
2024/03/30 07:41:12;;;;;;;12.45;3.08;;;;;;;32.85;32.21;97303.28;5090544;28;20051;-79
2024/03/30 07:43:38;;;;;;;11.55;2.70;;;;;;;32.50;32.59;97294.06;5088885;28;20032;-76
2024/03/30 07:46:05;;;;;;;13.07;2.67;;;;;;;34.23;31.50;97294.81;5072147;28;20392;-78
2024/03/30 07:48:30;;;;;;;14.98;3.30;;;;;;;35.48;30.49;97300.66;5090497;28;20106;-78
2024/03/30 07:50:56;;;;;;;9.23;3.17;;;;;;;35.00;31.03;97298.59;5069220;28;20590;-81
2024/03/30 07:53:22;;;;;;;12.70;4.07;;;;;;;35.46;30.81;97288.97;5075573;28;20031;-81
2024/03/30 07:55:48;;;;;;;12.30;3.28;;;;;;;35.98;30.20;97288.47;5071882;28;20040;-81
2024/03/30 07:58:13;;;;;;;6.50;2.38;;;;;;;35.99;29.15;97290.16;5082652;28;20038;-82
2024/03/30 08:00:39;;;;;;;9.57;2.53;;;;;;;35.07;29.88;97287.28;5068979;28;20042;-81
2024/03/30 08:03:04;;;;;;;10.93;2.45;;;;;;;37.14;29.08;97279.19;5082571;28;20028;-81
2024/03/30 08:05:31;;;;;;;9.00;2.78;;;;;;;37.73;27.32;97264.97;5089254;28;20051;-79
2024/03/30 08:07:57;;;;;;;21.67;10.38;;;;;;;36.98;27.71;97270.97;5088657;28;20035;-80
2024/03/30 08:10:23;;;;;;;10.20;2.70;;;;;;;38.27;26.62;97273.78;5088678;28;20360;-78
2024/03/30 08:12:49;;;;;;;10.30;3.85;;;;;;;37.66;26.99;97286.72;5070962;28;20043;-76
2024/03/30 08:15:15;;;;;;;8.23;2.97;;;;;;;38.58;25.86;97275.47;5088927;28;20020;-79
2024/03/30 08:17:41;;;;;;;12.35;3.35;;;;;;;38.73;24.44;97278.25;5071301;28;20407;-78
2024/03/30 08:20:08;;;;;;;7.22;1.92;;;;;;;36.22;26.37;97271.19;5087981;28;20028;-78
2024/03/30 08:22:37;;;;;;;6.72;1.67;;;;;;;34.41;27.84;97268.72;5078812;28;20024;-78
2024/03/30 08:25:03;;;;;;;6.53;2.17;;;;;;;34.30;28.59;97273.28;5071409;28;20431;-78
2024/03/30 08:27:28;;;;;;;7.43;1.98;;;;;;;33.79;28.50;97275.09;5088264;28;20055;-77
2024/03/30 08:29:54;;;;;;;12.13;1.83;;;;;;;33.68;28.74;97286.25;5085653;28;20114;-77
2024/03/30 08:32:19;;;;;;;12.73;2.60;;;;;;;33.81;29.06;97279.56;5072603;28;20024;-78
2024/03/30 08:34:45;;;;;;;10.80;2.17;;;;;;;33.48;29.09;97271.94;5088111;28;20035;-78
2024/03/30 08:37:11;;;;;;;5.60;2.25;;;;;;;33.25;29.78;97275.63;5070924;28;20572;-78
2024/03/30 08:39:36;;;;;;;6.45;1.70;;;;;;;34.08;29.07;97259.25;5089070;28;20020;-79
2024/03/30 08:42:02;;;;;;;6.95;1.58;;;;;;;33.10;29.70;97267.00;5087403;28;20035;-79
2024/03/30 08:44:27;;;;;;;6.05;1.83;;;;;;;32.65;29.56;97267.59;5089110;28;20093;-78
2024/03/30 08:46:53;;;;;;;6.70;1.63;;;;;;;33.13;29.27;97270.09;5087822;28;20024;-78
2024/03/30 08:49:18;;;;;;;8.82;2.05;;;;;;;33.14;29.15;97270.94;5087589;28;20188;-78
2024/03/30 08:51:44;;;;;;;9.02;1.77;;;;;;;33.97;28.65;97264.84;5071296;28;20042;-80
2024/03/30 08:54:10;;;;;;;4.53;1.88;;;;;;;33.68;28.05;97259.34;5088698;28;20505;-77
2024/03/30 08:56:36;;;;;;;9.05;2.10;;;;;;;33.95;28.17;97259.56;5088025;28;20407;-78
2024/03/30 08:59:02;;;;;;;6.55;1.58;;;;;;;34.60;27.55;97251.56;5087328;28;20023;-77
2024/03/30 09:01:32;;;;;;;6.32;1.85;;;;;;;34.20;27.87;97260.06;5070850;28;20124;-80
2024/03/30 09:03:57;;;;;;;10.43;2.15;;;;;;;33.38;27.91;97244.81;5087548;28;20043;-78
2024/03/30 09:06:23;;;;;;;5.28;1.40;;;;;;;33.59;27.75;97238.66;5070336;28;20490;-78
2024/03/30 09:08:49;;;;;;;8.93;2.00;;;;;;;33.92;27.26;97242.56;5088574;28;20522;-78
2024/03/30 09:11:14;;;;;;;3.67;1.42;;;;;;;34.18;27.69;97247.50;5087478;28;20062;-78
2024/03/30 09:13:40;;;;;;;10.93;2.08;;;;;;;35.50;26.70;97247.53;5070465;28;20032;-79
2024/03/30 09:16:06;;;;;;;9.57;2.03;;;;;;;35.71;25.52;97230.00;5067971;28;20096;-78
2024/03/30 09:18:31;;;;;;;7.85;1.73;;;;;;;36.14;25.45;97229.91;5066927;28;20598;-78
2024/03/30 09:20:58;;;;;;;13.45;2.05;;;;;;;36.35;25.53;97233.69;5066777;28;20078;-78
2024/03/30 09:23:25;;;;;;;4.13;1.90;;;;;;;36.19;25.09;97231.88;5067798;28;20024;-78
2024/03/30 09:25:51;;;;;;;4.88;1.88;;;;;;;35.56;25.14;97227.00;5068007;28;20074;-76
2024/03/30 09:28:16;;;;;;;6.40;1.90;;;;;;;35.72;25.29;97224.16;5066652;28;20033;-76
2024/03/30 09:30:42;;;;;;;8.50;1.60;;;;;;;35.85;25.34;97223.72;5073464;28;20518;-78
2024/03/30 09:33:07;;;;;;;7.18;1.98;;;;;;;35.59;25.18;97221.81;5087086;28;20023;-76
2024/03/30 09:35:33;;;;;;;5.50;1.73;;;;;;;36.48;25.31;97213.72;5086990;28;20379;-77
2024/03/30 09:37:58;;;;;;;6.85;1.85;;;;;;;36.92;25.30;97217.09;5086881;28;20039;-78
2024/03/30 09:40:24;;;;;;;5.47;1.80;;;;;;;36.50;24.50;97205.09;5088024;28;20024;-78
2024/03/30 09:42:50;;;;;;;9.48;1.83;;;;;;;36.18;25.05;97219.06;5073093;28;20388;-78
2024/03/30 09:45:15;;;;;;;9.23;1.70;;;;;;;36.45;24.14;97203.13;5067902;28;20104;-77
2024/03/30 09:47:42;;;;;;;10.43;2.90;;;;;;;36.21;24.53;97185.91;5066895;28;20056;-78
2024/03/30 09:50:09;;;;;;;5.22;1.45;;;;;;;36.08;24.48;97185.53;5066562;28;20081;-77
2024/03/30 09:52:39;;;;;;;3.50;1.40;;;;;;;35.89;24.34;97193.41;5066185;28;20480;-77
2024/03/30 09:55:10;;;;;;;8.27;1.88;;;;;;;36.23;24.16;97188.44;5066837;28;20036;-77
2024/03/30 09:57:40;;;;;;;3.58;1.70;;;;;;;35.81;23.87;97169.66;5050420;28;20535;-78
2024/03/30 10:00:10;;;;;;;4.30;1.58;;;;;;;35.86;24.25;97161.38;5066749;28;20102;-79
2024/03/30 10:02:36;;;;;;;4.10;1.73;;;;;;;34.84;24.62;97179.91;5066189;28;20028;-77
2024/03/30 10:05:03;;;;;;;7.55;1.58;;;;;;;35.54;24.64;97170.75;5066508;28;20040;-78
2024/03/30 10:07:36;;;;;;;6.35;1.48;;;;;;;35.27;23.95;97171.59;5066393;28;20024;-76
2024/03/30 10:10:23;;;;;;;8.88;1.25;;;;;;;35.15;24.31;97164.47;5062839;28;20027;-78
2024/03/30 10:12:58;;;;;;;6.05;1.95;;;;;;;35.17;24.95;97174.22;5087811;28;20089;-76
2024/03/30 10:15:52;;;;;;;8.13;1.45;;;;;;;36.10;23.52;97164.66;5086452;28;20063;-77
2024/03/30 10:18:18;;;;;;;4.85;1.80;;;;;;;36.61;23.07;97160.28;5084599;28;20059;-78
2024/03/30 10:20:43;;;;;;;4.43;1.33;;;;;;;36.99;22.02;97153.56;5089092;28;20031;-77
2024/03/30 10:23:09;;;;;;;5.63;1.55;;;;;;;37.78;21.93;97150.44;5091015;28;20031;-78
2024/03/30 10:25:35;;;;;;;4.10;1.38;;;;;;;37.74;21.96;97154.91;5091009;28;20074;-77
2024/03/30 10:28:01;;;;;;;2.28;1.15;;;;;;;37.74;21.12;97126.97;5090241;28;20031;-78
2024/03/30 10:30:27;;;;;;;3.67;1.25;;;;;;;37.54;20.70;97125.00;5066391;28;20024;-79
2024/03/30 10:33:03;;;;;;;6.47;1.30;;;;;;;38.03;21.37;97135.66;5080967;28;20024;-78
2024/03/30 10:35:29;;;;;;;4.50;1.52;;;;;;;37.62;21.62;97130.06;5090763;28;20043;-77
2024/03/30 10:37:58;;;;;;;7.18;1.38;;;;;;;37.88;21.39;97134.53;5075273;28;20060;-80
2024/03/30 10:40:24;;;;;;;11.48;1.50;;;;;;;37.80;21.14;97117.50;5064009;28;20047;-78
2024/03/30 10:42:54;;;;;;;5.82;1.52;;;;;;;38.48;20.14;97116.09;5090405;28;20111;-78
2024/03/30 10:45:20;;;;;;;4.60;1.23;;;;;;;38.32;19.71;97118.06;5076284;28;20135;-79
2024/03/30 10:47:46;;;;;;;7.03;1.48;;;;;;;39.10;19.93;97109.19;5053504;28;20164;-78
2024/03/30 10:50:15;;;;;;;4.47;1.20;;;;;;;38.96;20.11;97112.59;5053010;28;20021;-80
2024/03/30 10:52:41;;;;;;;3.70;1.20;;;;;;;38.64;19.75;97100.91;5076927;28;20069;-80
2024/03/30 10:55:06;;;;;;;5.22;1.42;;;;;;;38.28;19.42;97090.94;5094494;28;20131;-81
2024/03/30 10:57:32;;;;;;;4.20;1.27;;;;;;;38.11;19.59;97090.41;5093331;28;20085;-79
2024/03/30 11:00:03;;;;;;;3.92;1.90;;;;;;;38.46;20.55;97094.00;5087022;28;20029;-78
2024/03/30 11:02:29;;;;;;;7.53;1.52;;;;;;;38.98;20.28;97087.94;5079452;28;20032;-79
2024/03/30 11:04:55;;;;;;;6.43;1.50;;;;;;;39.32;19.51;97078.81;5088650;28;20031;-79
2024/03/30 11:07:23;;;;;;;7.13;2.00;;;;;;;39.96;19.40;97084.28;5092486;28;20039;-73
2024/03/30 11:09:48;;;;;;;8.32;2.00;;;;;;;40.15;19.30;97073.19;5071306;28;20031;-77
2024/03/30 11:12:15;;;;;;;5.72;2.38;;;;;;;40.30;18.53;97071.03;5072472;28;20416;-78
2024/03/30 11:14:41;;;;;;;3.30;1.30;;;;;;;40.18;18.78;97067.81;5073339;28;20097;-78
2024/03/30 11:17:32;;;;;;;3.13;1.60;;;;;;;38.57;19.34;97047.28;5091913;28;20047;-77
2024/03/30 11:19:58;;;;;;;2.15;0.88;;;;;;;37.59;19.99;97052.41;5093608;28;20024;-78
2024/03/30 11:22:52;;;;;;;5.60;1.90;;;;;;;38.36;21.32;97073.63;5084088;28;20024;-77
2024/03/30 11:25:21;;;;;;;3.70;1.50;;;;;;;37.76;20.85;97069.72;5072024;28;20028;-78
2024/03/30 11:27:58;;;;;;;3.38;1.13;;;;;;;38.08;20.19;97061.06;5055357;28;20561;-78
2024/03/30 11:30:48;;;;;;;3.75;1.10;;;;;;;38.51;19.78;97059.59;5071724;28;20031;-76